createdAt,value
2023-09-26T00:00:21.023Z,96164.22
2023-09-26T00:03:09.539Z,96168.88
2023-09-26T00:05:38.115Z,96168.20
2023-09-26T00:08:06.881Z,96171.43
2023-09-26T00:10:36.640Z,96173.11
2023-09-26T00:13:05.251Z,96175.41
2023-09-26T00:15:35.299Z,96174.88
2023-09-26T00:18:03.973Z,96177.08
2023-09-26T00:20:34.814Z,96175.42
2023-09-26T00:23:03.314Z,96176.21
2023-09-26T00:25:32.131Z,96171.89
2023-09-26T00:28:00.621Z,96172.14
2023-09-26T00:30:29.368Z,96175.79
2023-09-26T00:32:58.033Z,96171.51
2023-09-26T00:35:26.933Z,96172.50
2023-09-26T00:37:55.820Z,96168.69
2023-09-26T00:40:24.692Z,96167.33
2023-09-26T00:42:53.429Z,96171.59
2023-09-26T00:45:22.652Z,96179.06
2023-09-26T00:47:51.668Z,96174.48
2023-09-26T00:50:23.640Z,96178.52
2023-09-26T00:52:54.835Z,96180.39
2023-09-26T00:55:25.871Z,96180.47
2023-09-26T00:57:55.992Z,96178.81
2023-09-26T01:00:25.929Z,96177.09
2023-09-26T01:02:56.179Z,96179.23
2023-09-26T01:05:25.329Z,96178.27
2023-09-26T01:07:54.826Z,96178.47
2023-09-26T01:10:23.639Z,96175.18
2023-09-26T01:12:52.312Z,96173.42
2023-09-26T01:15:40.959Z,96175.59
2023-09-26T01:18:17.994Z,96174.16
2023-09-26T01:20:47.538Z,96171.15
2023-09-26T01:23:17.754Z,96177.84
2023-09-26T01:25:46.540Z,96179.48
2023-09-26T01:28:18.343Z,96176.67
2023-09-26T01:30:47.638Z,96180.24
2023-09-26T01:33:21.567Z,96179.77
2023-09-26T01:35:52.826Z,96176.85
2023-09-26T01:38:23.407Z,96178.45
2023-09-26T01:40:52.022Z,96176.52
2023-09-26T01:43:21.024Z,96173.64
2023-09-26T01:45:50.152Z,96175.73
2023-09-26T01:48:18.733Z,96176.78
2023-09-26T01:50:47.229Z,96176.31
2023-09-26T01:53:15.853Z,96174.35
2023-09-26T01:55:44.430Z,96171.37
2023-09-26T01:58:12.943Z,96171.88
2023-09-26T02:00:41.858Z,96176.09
2023-09-26T02:03:10.452Z,96176.91
2023-09-26T02:05:39.305Z,96174.19
2023-09-26T02:08:07.886Z,96175.95
2023-09-26T02:10:36.807Z,96175.81
2023-09-26T02:13:05.442Z,96178.02
2023-09-26T02:15:34.016Z,96180.17
2023-09-26T02:18:02.517Z,96181.77
2023-09-26T02:20:31.147Z,96185.64
2023-09-26T02:23:00.943Z,96182.94
2023-09-26T02:25:29.710Z,96185.50
2023-09-26T02:27:58.580Z,96191.21
2023-09-26T02:30:30.204Z,96191.80
2023-09-26T02:32:58.807Z,96197.97
2023-09-26T02:35:27.462Z,96199.98
2023-09-26T02:37:56.124Z,96202.23
2023-09-26T02:40:25.117Z,96202.17
2023-09-26T02:42:53.825Z,96203.89
2023-09-26T02:45:22.439Z,96200.50
2023-09-26T02:47:50.973Z,96201.09
2023-09-26T02:50:22.426Z,96194.95
2023-09-26T02:52:51.050Z,96194.31
2023-09-26T02:55:21.821Z,96192.48
2023-09-26T02:57:50.428Z,96194.80
2023-09-26T03:00:19.744Z,96197.67
2023-09-26T03:02:49.721Z,96195.24
2023-09-26T03:05:19.443Z,96195.56
2023-09-26T03:07:51.237Z,96196.80
2023-09-26T03:10:20.317Z,96198.23
2023-09-26T03:12:50.168Z,96197.88
2023-09-26T03:15:19.278Z,96197.92
2023-09-26T03:17:48.896Z,96197.86
2023-09-26T03:20:18.482Z,96197.60
2023-09-26T03:22:47.095Z,96201.69
2023-09-26T03:25:15.804Z,96203.75
2023-09-26T03:27:47.222Z,96201.64
2023-09-26T03:30:17.141Z,96200.10
2023-09-26T03:32:45.689Z,96200.17
2023-09-26T03:35:14.417Z,96197.52
2023-09-26T03:37:44.262Z,96198.77
2023-09-26T03:40:13.154Z,96196.45
2023-09-26T03:42:43.343Z,96205.82
2023-09-26T03:45:12.130Z,96200.81
2023-09-26T03:47:41.145Z,96197.24
2023-09-26T03:50:10.153Z,96198.75
2023-09-26T03:52:39.149Z,96196.95
2023-09-26T03:55:08.627Z,96198.84
2023-09-26T03:57:37.482Z,96197.41
2023-09-26T04:00:18.104Z,96196.77
2023-09-26T04:02:46.865Z,96196.48
2023-09-26T04:05:15.849Z,96196.91
2023-09-26T04:07:45.085Z,96198.52
2023-09-26T04:10:13.788Z,96197.21
2023-09-26T04:12:42.447Z,96200.02
2023-09-26T04:15:11.334Z,96202.29
2023-09-26T04:17:40.083Z,96201.65
2023-09-26T04:20:26.570Z,96199.55
2023-09-26T04:23:02.185Z,96201.45
2023-09-26T04:25:32.093Z,96202.80
2023-09-26T04:28:00.940Z,96205.23
2023-09-26T04:30:30.169Z,96203.11
2023-09-26T04:32:59.043Z,96205.91
2023-09-26T04:35:27.579Z,96205.05
2023-09-26T04:37:56.204Z,96208.92
2023-09-26T04:40:25.441Z,96209.60
2023-09-26T04:42:53.996Z,96212.15
2023-09-26T04:45:22.593Z,96213.55
2023-09-26T04:47:51.076Z,96213.42
2023-09-26T04:50:19.703Z,96211.95
2023-09-26T04:52:48.083Z,96210.67
2023-09-26T04:55:17.334Z,96214.16
2023-09-26T04:57:45.864Z,96214.38
2023-09-26T05:00:18.769Z,96213.65
2023-09-26T05:02:52.374Z,96214.32
2023-09-26T05:05:21.256Z,96214.64
2023-09-26T05:07:52.432Z,96216.05
2023-09-26T05:10:21.836Z,96216.61
2023-09-26T05:12:50.414Z,96222.94
2023-09-26T05:15:18.835Z,96226.07
2023-09-26T05:17:55.174Z,96224.44
2023-09-26T05:20:25.326Z,96227.81
2023-09-26T05:22:55.246Z,96234.61
2023-09-26T05:25:23.868Z,96235.05
2023-09-26T05:27:52.567Z,96237.30
2023-09-26T05:30:21.600Z,96235.05
2023-09-26T05:32:50.145Z,96235.78
2023-09-26T05:35:19.380Z,96236.60
2023-09-26T05:37:48.117Z,96227.89
2023-09-26T05:40:16.793Z,96224.98
2023-09-26T05:42:45.642Z,96226.44
2023-09-26T05:45:14.170Z,96226.98
2023-09-26T05:47:42.779Z,96224.25
2023-09-26T05:50:11.538Z,96223.06
2023-09-26T05:52:40.181Z,96224.77
2023-09-26T05:55:10.143Z,96222.97
2023-09-26T05:57:39.189Z,96224.50
2023-09-26T06:00:14.096Z,96224.94
2023-09-26T06:02:43.157Z,96223.54
2023-09-26T06:05:15.766Z,96225.02
2023-09-26T06:07:46.803Z,96223.08
2023-09-26T06:10:15.912Z,96225.34
2023-09-26T06:12:44.702Z,96225.02
2023-09-26T06:15:13.232Z,96224.03
2023-09-26T06:17:42.688Z,96222.95
2023-09-26T06:20:13.590Z,96225.08
2023-09-26T06:22:42.254Z,96221.23
2023-09-26T06:25:10.877Z,96224.69
2023-09-26T06:27:39.596Z,96220.99
2023-09-26T06:30:11.330Z,96221.69
2023-09-26T06:32:39.902Z,96217.73
2023-09-26T06:35:09.011Z,96215.77
2023-09-26T06:37:37.644Z,96211.50
2023-09-26T06:40:07.012Z,96212.38
2023-09-26T06:42:38.072Z,96213.12
2023-09-26T06:45:10.568Z,96211.24
2023-09-26T06:47:39.038Z,96208.52
2023-09-26T06:50:11.811Z,96202.75
2023-09-26T06:52:41.175Z,96204.02
2023-09-26T06:55:12.881Z,96201.16
2023-09-26T06:57:42.492Z,96199.65
2023-09-26T07:00:17.957Z,96198.04
2023-09-26T07:02:48.799Z,96200.39
2023-09-26T07:05:18.271Z,96197.44
2023-09-26T07:07:46.944Z,96197.46
2023-09-26T07:10:15.849Z,96196.77
2023-09-26T07:12:45.932Z,96195.38
2023-09-26T07:15:14.792Z,96196.64
2023-09-26T07:17:46.161Z,96191.85
2023-09-26T07:20:15.238Z,96193.37
2023-09-26T07:22:46.297Z,96191.69
2023-09-26T07:25:15.252Z,96192.94
2023-09-26T07:27:45.647Z,96188.27
2023-09-26T07:30:16.113Z,96186.02
2023-09-26T07:32:45.333Z,96188.56
2023-09-26T07:35:14.163Z,96185.73
2023-09-26T07:37:42.682Z,96185.30
2023-09-26T07:40:11.586Z,96184.61
2023-09-26T07:42:41.806Z,96180.56
2023-09-26T07:45:11.147Z,96180.07
2023-09-26T07:47:40.467Z,96180.67
2023-09-26T07:50:09.385Z,96180.83
2023-09-26T07:52:39.358Z,96176.80
2023-09-26T07:55:08.588Z,96174.02
2023-09-26T07:57:37.900Z,96171.31
2023-09-26T08:00:14.926Z,96166.98
2023-09-26T08:02:43.400Z,96164.31
2023-09-26T08:05:12.152Z,96160.29
2023-09-26T08:07:44.257Z,96157.58
2023-09-26T08:10:13.959Z,96154.75
2023-09-26T08:12:43.345Z,96156.88
2023-09-26T08:15:12.874Z,96157.09
2023-09-26T08:17:41.931Z,96156.45
2023-09-26T08:20:10.757Z,96152.14
2023-09-26T08:22:40.105Z,96149.13
2023-09-26T08:25:09.648Z,96150.79
2023-09-26T08:27:39.066Z,96154.31
2023-09-26T08:30:09.948Z,96149.83
2023-09-26T08:32:39.757Z,96147.05
2023-09-26T08:35:12.447Z,96150.00
2023-09-26T08:37:44.142Z,96152.80
2023-09-26T08:40:12.924Z,96149.48
2023-09-26T08:42:51.099Z,96151.52
2023-09-26T08:45:20.503Z,96153.88
2023-09-26T08:47:50.106Z,96146.40
2023-09-26T08:50:18.698Z,96146.67
2023-09-26T08:52:47.416Z,96143.23
2023-09-26T08:55:16.520Z,96140.15
2023-09-26T08:57:46.362Z,96138.30
2023-09-26T09:00:16.439Z,96137.80
2023-09-26T09:02:45.029Z,96138.48
2023-09-26T09:05:14.017Z,96131.90
2023-09-26T09:07:42.510Z,96127.24
2023-09-26T09:10:13.296Z,96130.98
2023-09-26T09:12:42.834Z,96126.34
2023-09-26T09:15:17.302Z,96126.86
2023-09-26T09:17:50.587Z,96132.13
2023-09-26T09:20:34.180Z,96131.25
2023-09-26T09:23:07.644Z,96126.93
2023-09-26T09:25:39.183Z,96132.26
2023-09-26T09:28:09.008Z,96132.85
2023-09-26T09:30:40.014Z,96126.88
2023-09-26T09:33:10.853Z,96129.09
2023-09-26T09:35:39.766Z,96127.17
2023-09-26T09:38:10.339Z,96127.39
2023-09-26T09:40:38.868Z,96124.63
2023-09-26T09:43:07.425Z,96121.98
2023-09-26T09:45:36.744Z,96121.21
2023-09-26T09:48:10.226Z,96115.89
2023-09-26T09:50:40.045Z,96111.31
2023-09-26T09:53:10.488Z,96110.80
2023-09-26T09:55:40.704Z,96111.35
2023-09-26T09:58:13.419Z,96113.14
2023-09-26T10:00:42.105Z,96113.15
2023-09-26T10:03:13.335Z,96113.92
2023-09-26T10:05:44.418Z,96116.08
2023-09-26T10:08:14.688Z,96119.36
2023-09-26T10:10:45.159Z,96116.90
2023-09-26T10:13:35.000Z,96119.18
2023-09-26T10:16:19.719Z,96122.02
2023-09-26T10:18:51.996Z,96118.42
2023-09-26T10:21:21.181Z,96113.25
2023-09-26T10:24:11.757Z,96110.83
2023-09-26T10:26:45.569Z,96109.80
2023-09-26T10:29:28.692Z,96106.25
2023-09-26T10:32:05.998Z,96109.50
2023-09-26T10:37:28.139Z,96100.73
2023-09-26T10:39:56.697Z,96102.08
2023-09-26T10:43:07.924Z,96097.15
2023-09-26T10:45:15.465Z,96096.05
2023-09-26T10:47:46.006Z,96095.42
2023-09-26T10:50:25.511Z,96091.59
2023-09-26T10:52:54.491Z,96089.09
2023-09-26T10:55:25.134Z,96086.66
2023-09-26T10:57:55.303Z,96093.80
2023-09-26T11:00:23.714Z,96088.48
2023-09-26T11:02:54.338Z,96082.15
2023-09-26T11:05:29.023Z,96083.03
2023-09-26T11:07:57.964Z,96087.64
2023-09-26T11:10:26.794Z,96087.73
2023-09-26T11:12:55.375Z,96085.50
2023-09-26T11:15:23.964Z,96081.69
2023-09-26T11:17:52.707Z,96076.31
2023-09-26T11:20:21.564Z,96076.71
2023-09-26T11:22:52.692Z,96082.40
2023-09-26T11:25:21.161Z,96077.30
2023-09-26T11:27:49.696Z,96086.02
2023-09-26T11:30:21.120Z,96083.10
2023-09-26T11:32:56.423Z,96084.03
2023-09-26T11:35:27.151Z,96080.33
2023-09-26T11:37:56.115Z,96081.73
2023-09-26T11:40:29.608Z,96080.90
2023-09-26T11:43:04.682Z,96079.05
2023-09-26T11:45:35.448Z,96067.98
2023-09-26T11:48:07.389Z,96072.64
2023-09-26T11:50:41.538Z,96075.80
2023-09-26T11:53:10.898Z,96074.12
2023-09-26T11:55:40.295Z,96076.52
2023-09-26T11:58:08.938Z,96072.14
2023-09-26T12:00:37.366Z,96070.79
2023-09-26T12:03:05.989Z,96070.19
2023-09-26T12:05:36.621Z,96072.13
2023-09-26T12:08:05.415Z,96074.33
2023-09-26T12:10:34.527Z,96075.11
2023-09-26T12:13:08.022Z,96075.95
2023-09-26T12:15:36.789Z,96075.41
2023-09-26T12:18:05.793Z,96065.29
2023-09-26T12:20:34.984Z,96069.42
2023-09-26T12:23:03.964Z,96066.02
2023-09-26T12:25:32.965Z,96068.66
2023-09-26T12:28:01.597Z,96062.89
2023-09-26T12:30:30.187Z,96065.70
2023-09-26T12:32:58.801Z,96066.48
2023-09-26T12:35:27.398Z,96063.19
2023-09-26T12:37:56.066Z,96056.64
2023-09-26T12:40:24.775Z,96059.08
2023-09-26T12:42:53.833Z,96056.91
2023-09-26T12:45:22.291Z,96052.95
2023-09-26T12:47:50.807Z,96054.31
2023-09-26T12:50:19.387Z,96054.42
2023-09-26T12:52:48.684Z,96057.49
2023-09-26T12:55:18.177Z,96055.50
2023-09-26T12:57:46.787Z,96052.48
2023-09-26T13:00:15.843Z,96048.33
2023-09-26T13:02:44.439Z,96049.80
2023-09-26T13:05:13.708Z,96048.29
2023-09-26T13:07:42.327Z,96049.20
2023-09-26T13:10:11.752Z,96049.16
2023-09-26T13:12:41.514Z,96049.55
2023-09-26T13:15:10.716Z,96045.14
2023-09-26T13:17:40.053Z,96046.10
2023-09-26T13:20:12.705Z,96045.27
2023-09-26T13:22:41.878Z,96041.70
2023-09-26T13:25:10.537Z,96041.77
2023-09-26T13:27:39.367Z,96040.70
2023-09-26T13:30:08.957Z,96047.70
2023-09-26T13:32:37.567Z,96049.52
2023-09-26T13:35:06.986Z,96049.29
2023-09-26T13:37:38.328Z,96050.83
2023-09-26T13:40:07.549Z,96049.73
2023-09-26T13:42:36.324Z,96056.10
2023-09-26T13:45:05.803Z,96049.95
2023-09-26T13:47:35.501Z,96059.75
2023-09-26T13:50:04.654Z,96061.77
2023-09-26T13:52:33.170Z,96053.71
2023-09-26T13:55:01.687Z,96055.59
2023-09-26T13:57:30.175Z,96054.25
2023-09-26T13:59:58.767Z,96055.09
2023-09-26T14:02:27.331Z,96055.96
2023-09-26T14:05:09.616Z,96050.27
2023-09-26T14:07:44.448Z,96041.66
2023-09-26T14:10:13.370Z,96045.76
2023-09-26T14:12:42.043Z,96049.34
2023-09-26T14:15:10.939Z,96050.25
2023-09-26T14:17:40.004Z,96049.44
2023-09-26T14:20:09.130Z,96044.26
2023-09-26T14:22:39.699Z,96039.98
2023-09-26T14:25:12.089Z,96041.23
2023-09-26T14:27:40.979Z,96040.06
2023-09-26T14:30:12.608Z,96046.45
2023-09-26T14:32:43.602Z,96038.69
2023-09-26T14:35:12.875Z,96037.12
2023-09-26T14:37:41.623Z,96038.53
2023-09-26T14:40:11.557Z,96038.34
2023-09-26T14:42:40.764Z,96043.89
2023-09-26T14:45:09.752Z,96041.00
2023-09-26T14:47:38.373Z,96042.59
2023-09-26T14:50:09.284Z,96039.36
2023-09-26T14:52:37.899Z,96040.13
2023-09-26T14:55:07.310Z,96041.78
2023-09-26T14:57:35.940Z,96039.46
2023-09-26T15:00:05.239Z,96041.09
2023-09-26T15:02:33.815Z,96039.06
2023-09-26T15:05:02.751Z,96032.85
2023-09-26T15:07:32.375Z,96038.15
2023-09-26T15:10:01.058Z,96041.92
2023-09-26T15:12:29.550Z,96041.98
2023-09-26T15:14:58.113Z,96041.92
2023-09-26T15:17:27.483Z,96038.98
2023-09-26T15:19:56.069Z,96040.79
2023-09-26T15:22:24.833Z,96039.80
2023-09-26T15:24:53.518Z,96036.27
2023-09-26T15:27:22.182Z,96045.26
2023-09-26T15:29:51.257Z,96042.48
2023-09-26T15:32:19.859Z,96045.88
2023-09-26T15:34:48.457Z,96044.85
2023-09-26T15:37:17.145Z,96046.40
2023-09-26T15:39:45.672Z,96049.40
2023-09-26T15:42:14.499Z,96048.59
2023-09-26T15:44:43.920Z,96054.59
2023-09-26T15:47:13.216Z,96056.11
2023-09-26T15:49:50.420Z,96053.41
2023-09-26T15:52:19.495Z,96062.44
2023-09-26T15:54:48.065Z,96063.14
2023-09-26T15:57:16.787Z,96068.39
2023-09-26T15:59:45.422Z,96067.56
2023-09-26T16:02:14.208Z,96072.20
2023-09-26T16:04:42.804Z,96075.96
2023-09-26T16:07:11.609Z,96075.60
2023-09-26T16:09:40.134Z,96079.35
2023-09-26T16:12:09.541Z,96080.27
2023-09-26T16:14:38.014Z,96083.98
2023-09-26T16:17:06.543Z,96085.10
2023-09-26T16:19:35.415Z,96086.45
2023-09-26T16:22:03.973Z,96089.52
2023-09-26T16:24:32.452Z,96091.52
2023-09-26T16:27:02.368Z,96092.46
2023-09-26T16:29:31.616Z,96092.17
2023-09-26T16:32:00.470Z,96095.87
2023-09-26T16:34:29.236Z,96099.19
2023-09-26T16:36:57.724Z,96098.39
2023-09-26T16:39:26.308Z,96103.98
2023-09-26T16:41:54.834Z,96101.27
2023-09-26T16:44:23.413Z,96106.42
2023-09-26T16:46:52.333Z,96106.48
2023-09-26T16:49:21.385Z,96109.36
2023-09-26T16:51:50.603Z,96113.14
2023-09-26T16:54:19.689Z,96111.25
2023-09-26T16:56:48.485Z,96114.86
2023-09-26T16:59:16.957Z,96116.44
2023-09-26T17:01:45.583Z,96115.44
2023-09-26T17:04:14.482Z,96112.47
2023-09-26T17:06:47.325Z,96115.32
2023-09-26T17:09:15.998Z,96117.30
2023-09-26T17:11:44.529Z,96118.48
2023-09-26T17:14:13.096Z,96119.27
2023-09-26T17:16:41.716Z,96122.36
2023-09-26T17:19:10.278Z,96123.19
2023-09-26T17:21:38.813Z,96118.55
2023-09-26T17:24:07.852Z,96118.90
2023-09-26T17:26:36.385Z,96117.13
2023-09-26T17:29:05.447Z,96117.11
2023-09-26T17:31:34.399Z,96121.48
2023-09-26T17:34:02.999Z,96119.80
2023-09-26T17:36:31.788Z,96124.11
2023-09-26T17:39:01.570Z,96127.02
2023-09-26T17:41:31.927Z,96130.04
2023-09-26T17:44:00.468Z,96132.27
2023-09-26T17:46:29.370Z,96136.27
2023-09-26T17:48:58.284Z,96139.53
2023-09-26T17:51:27.120Z,96144.10
2023-09-26T17:53:58.623Z,96146.33
2023-09-26T17:56:27.417Z,96151.60
2023-09-26T17:58:56.029Z,96152.90
2023-09-26T18:01:24.623Z,96154.28
2023-09-26T18:03:53.339Z,96158.44
2023-09-26T18:06:22.055Z,96160.89
2023-09-26T18:08:50.637Z,96160.30
2023-09-26T18:11:19.150Z,96160.52
2023-09-26T18:13:47.833Z,96162.73
2023-09-26T18:16:16.638Z,96163.91
2023-09-26T18:18:45.165Z,96165.96
2023-09-26T18:21:13.804Z,96163.77
2023-09-26T18:23:42.245Z,96163.80
2023-09-26T18:26:10.811Z,96166.58
2023-09-26T18:28:39.318Z,96165.08
2023-09-26T18:31:08.090Z,96168.14
2023-09-26T18:33:37.128Z,96169.58
2023-09-26T18:36:08.602Z,96170.84
2023-09-26T18:38:39.323Z,96174.65
2023-09-26T18:41:08.000Z,96170.86
2023-09-26T18:43:36.892Z,96172.48
2023-09-26T18:46:10.512Z,96171.84
2023-09-26T18:48:40.647Z,96169.81
2023-09-26T18:51:09.231Z,96172.13
2023-09-26T18:53:37.693Z,96170.90
2023-09-26T18:56:06.962Z,96171.66
2023-09-26T18:58:35.606Z,96171.56
2023-09-26T19:01:04.231Z,96170.98
2023-09-26T19:03:33.121Z,96172.70
2023-09-26T19:06:03.117Z,96171.77
2023-09-26T19:08:31.873Z,96165.21
2023-09-26T19:11:00.879Z,96165.19
2023-09-26T19:13:29.592Z,96167.59
2023-09-26T19:15:58.928Z,96166.09
2023-09-26T19:18:27.480Z,96162.51
2023-09-26T19:20:56.267Z,96163.10
2023-09-26T19:23:24.889Z,96164.72
2023-09-26T19:25:53.536Z,96167.89
2023-09-26T19:28:22.252Z,96168.19
2023-09-26T19:30:50.909Z,96173.39
2023-09-26T19:33:19.452Z,96174.23
2023-09-26T19:35:48.078Z,96174.19
2023-09-26T19:38:16.936Z,96176.49
2023-09-26T19:40:45.871Z,96175.26
2023-09-26T19:43:14.478Z,96173.54
2023-09-26T19:45:42.967Z,96177.84
2023-09-26T19:48:11.781Z,96176.57
2023-09-26T19:50:40.842Z,96179.85
2023-09-26T19:53:12.483Z,96180.48
2023-09-26T19:55:46.442Z,96183.70
2023-09-26T19:58:15.089Z,96190.73
2023-09-26T20:00:44.593Z,96188.91
2023-09-26T20:03:13.076Z,96187.48
2023-09-26T20:05:41.860Z,96189.50
2023-09-26T20:08:10.638Z,96183.83
2023-09-26T20:10:39.325Z,96182.88
2023-09-26T20:13:09.250Z,96176.98
2023-09-26T20:15:37.774Z,96176.98
2023-09-26T20:18:07.416Z,96176.36
2023-09-26T20:20:35.873Z,96176.65
2023-09-26T20:23:07.120Z,96176.70
2023-09-26T20:25:35.998Z,96176.34
2023-09-26T20:28:04.782Z,96174.61
2023-09-26T20:30:34.829Z,96175.33
2023-09-26T20:33:05.181Z,96175.60
2023-09-26T20:35:33.804Z,96178.06
2023-09-26T20:38:02.503Z,96178.89
2023-09-26T20:40:31.131Z,96177.44
2023-09-26T20:42:59.620Z,96179.45
2023-09-26T20:45:28.184Z,96178.69
2023-09-26T20:47:56.715Z,96179.77
2023-09-26T20:50:25.260Z,96187.20
2023-09-26T20:52:53.853Z,96185.96
2023-09-26T20:55:22.352Z,96186.66
2023-09-26T20:57:51.103Z,96189.23
2023-09-26T21:00:19.986Z,96192.19
2023-09-26T21:02:48.833Z,96195.16
2023-09-26T21:05:17.664Z,96202.73
2023-09-26T21:07:46.178Z,96203.60
2023-09-26T21:10:16.884Z,96206.06
2023-09-26T21:12:45.890Z,96207.59
2023-09-26T21:15:14.519Z,96207.73
2023-09-26T21:17:43.093Z,96210.27
2023-09-26T21:20:12.194Z,96210.77
2023-09-26T21:22:41.379Z,96212.05
2023-09-26T21:25:10.424Z,96211.29
2023-09-26T21:27:40.824Z,96212.09
2023-09-26T21:30:10.201Z,96212.36
2023-09-26T21:32:39.897Z,96211.94
2023-09-26T21:35:09.031Z,96214.60
2023-09-26T21:37:37.708Z,96214.95
2023-09-26T21:40:07.158Z,96212.08
2023-09-26T21:42:35.595Z,96211.58
2023-09-26T21:45:04.359Z,96210.70
2023-09-26T21:47:33.098Z,96208.39
2023-09-26T21:50:04.438Z,96209.08
2023-09-26T21:52:33.125Z,96209.52
2023-09-26T21:55:02.983Z,96206.49
2023-09-26T21:57:31.522Z,96209.13
2023-09-26T21:59:59.994Z,96212.79
2023-09-26T22:02:28.578Z,96214.95
2023-09-26T22:04:57.184Z,96218.40
2023-09-26T22:07:26.614Z,96217.23
2023-09-26T22:09:55.608Z,96221.68
2023-09-26T22:12:26.597Z,96222.98
2023-09-26T22:14:56.659Z,96224.15
2023-09-26T22:17:26.793Z,96227.70
2023-09-26T22:19:55.578Z,96227.58
2023-09-26T22:22:24.203Z,96231.91
2023-09-26T22:24:52.682Z,96234.38
2023-09-26T22:27:23.194Z,96232.30
2023-09-26T22:29:51.685Z,96231.56
2023-09-26T22:32:20.431Z,96239.27
2023-09-26T22:34:50.063Z,96239.95
2023-09-26T22:37:18.866Z,96246.21
2023-09-26T22:39:47.609Z,96242.33
2023-09-26T22:42:17.585Z,96241.20
2023-09-26T22:44:46.612Z,96241.13
2023-09-26T22:47:15.882Z,96246.76
2023-09-26T22:49:45.084Z,96245.70
2023-09-26T22:52:14.005Z,96241.61
2023-09-26T22:54:43.263Z,96244.98
2023-09-26T22:57:11.876Z,96243.70
2023-09-26T22:59:40.924Z,96246.66
2023-09-26T23:02:09.592Z,96243.13
2023-09-26T23:04:39.232Z,96243.02
2023-09-26T23:07:08.308Z,96247.01
2023-09-26T23:09:37.752Z,96243.11
2023-09-26T23:12:06.394Z,96241.42
2023-09-26T23:14:34.983Z,96244.75
2023-09-26T23:17:03.998Z,96243.70
2023-09-26T23:19:32.561Z,96245.20
2023-09-26T23:22:01.814Z,96241.64
2023-09-26T23:24:30.495Z,96241.38
2023-09-26T23:26:59.527Z,96237.23
2023-09-26T23:29:29.153Z,96238.80
2023-09-26T23:31:57.815Z,96236.66
2023-09-26T23:34:26.966Z,96236.32
2023-09-26T23:36:56.416Z,96230.30
2023-09-26T23:39:25.105Z,96229.31
2023-09-26T23:41:53.687Z,96233.08
2023-09-26T23:44:22.218Z,96230.52
2023-09-26T23:46:51.004Z,96230.77
2023-09-26T23:49:19.444Z,96228.70
2023-09-26T23:51:48.041Z,96226.70
2023-09-26T23:54:16.662Z,96226.46
2023-09-26T23:56:45.154Z,96223.65
2023-09-26T23:59:13.733Z,96223.43
